createdAt,value
2022-09-28T00:02:24.298Z,93896.06
2022-09-28T00:04:50.963Z,93897.72
2022-09-28T00:07:17.471Z,93893.31
2022-09-28T00:09:43.986Z,93884.25
2022-09-28T00:12:11.356Z,93894.75
2022-09-28T00:14:37.927Z,93889.97
2022-09-28T00:17:04.497Z,93882.56
2022-09-28T00:19:31.185Z,93886.53
2022-09-28T00:21:58.648Z,93893.25
2022-09-28T00:24:27.657Z,93882.66
2022-09-28T00:26:56.830Z,93878.59
2022-09-28T00:29:31.710Z,93865.41
2022-09-28T00:32:03.674Z,93881.59
2022-09-28T00:34:33.512Z,93866.59
2022-09-28T00:37:01.246Z,93865.72
2022-09-28T00:39:28.597Z,93865.72
2022-09-28T00:41:55.148Z,93870.47
2022-09-28T00:44:24.622Z,93871.38
2022-09-28T00:46:53.300Z,93864.13
2022-09-28T00:49:27.670Z,93861.16
2022-09-28T00:51:54.586Z,93863.34
2022-09-28T00:54:22.109Z,93869.16
2022-09-28T00:56:49.009Z,93866.59
2022-09-28T00:59:16.266Z,93856.56
2022-09-28T01:01:43.094Z,93861.31
2022-09-28T01:04:10.019Z,93850.94
2022-09-28T01:06:38.973Z,93836.41
2022-09-28T01:09:08.628Z,93835.97
2022-09-28T01:11:39.345Z,93848.56
2022-09-28T01:14:10.143Z,93845.03
2022-09-28T01:16:54.258Z,93848.63
2022-09-28T01:19:39.516Z,93845.47
2022-09-28T01:22:26.402Z,93846.34
2022-09-28T01:25:18.994Z,93845.63
2022-09-28T01:27:54.605Z,93842.19
2022-09-28T01:30:21.742Z,93844.94
2022-09-28T01:32:57.572Z,93839.03
2022-09-28T01:35:45.812Z,93833.75
2022-09-28T01:38:26.819Z,93831.28
2022-09-28T01:40:54.718Z,93844.22
2022-09-28T01:43:27.431Z,93846.00
2022-09-28T01:46:04.601Z,93847.66
2022-09-28T01:48:43.895Z,93849.34
2022-09-28T01:51:25.127Z,93839.66
2022-09-28T01:53:57.284Z,93849.00
2022-09-28T01:56:50.599Z,93831.47
2022-09-28T01:59:22.438Z,93829.78
2022-09-28T02:01:53.832Z,93825.81
2022-09-28T02:04:26.922Z,93827.31
2022-09-28T02:07:07.669Z,93832.69
2022-09-28T02:09:43.530Z,93825.56
2022-09-28T02:12:26.943Z,93832.50
2022-09-28T02:14:59.696Z,93828.63
2022-09-28T02:17:26.339Z,93834.88
2022-09-28T02:19:53.070Z,93819.91
2022-09-28T02:22:31.734Z,93830.91
2022-09-28T02:25:35.291Z,93825.28
2022-09-28T02:28:07.138Z,93834.19
2022-09-28T02:30:36.665Z,93839.72
2022-09-28T02:33:19.113Z,93835.78
2022-09-28T02:35:46.226Z,93839.56
2022-09-28T02:38:14.495Z,93835.69
2022-09-28T02:40:48.224Z,93837.38
2022-09-28T02:43:47.037Z,93843.09
2022-09-28T02:46:38.012Z,93836.22
2022-09-28T02:49:30.107Z,93837.63
2022-09-28T02:51:59.356Z,93840.28
2022-09-28T02:54:56.534Z,93846.59
2022-09-28T02:57:30.512Z,93840.34
2022-09-28T03:00:15.995Z,93836.38
2022-09-28T03:02:59.121Z,93838.22
2022-09-28T03:05:58.109Z,93840.06
2022-09-28T03:08:50.033Z,93837.44
2022-09-28T03:11:32.718Z,93836.28
2022-09-28T03:14:00.040Z,93842.38
2022-09-28T03:16:27.657Z,93839.81
2022-09-28T03:18:54.386Z,93843.00
2022-09-28T03:21:20.905Z,93835.88
2022-09-28T03:23:47.951Z,93828.47
2022-09-28T03:26:16.164Z,93835.16
2022-09-28T03:28:43.091Z,93834.84
2022-09-28T03:31:09.687Z,93844.91
2022-09-28T03:33:36.414Z,93842.31
2022-09-28T03:36:03.047Z,93844.16
2022-09-28T03:38:29.583Z,93841.78
2022-09-28T03:40:58.270Z,93837.81
2022-09-28T03:43:26.640Z,93838.94
2022-09-28T03:45:58.162Z,93836.31
2022-09-28T03:48:31.374Z,93836.06
2022-09-28T03:51:01.823Z,93837.81
2022-09-28T03:53:32.239Z,93845.94
2022-09-28T03:56:11.802Z,93831.16
2022-09-28T03:58:38.336Z,93839.59
2022-09-28T04:01:16.569Z,93840.19
2022-09-28T04:03:44.664Z,93842.13
2022-09-28T04:06:11.865Z,93840.69
2022-09-28T04:08:38.844Z,93836.72
2022-09-28T04:11:05.950Z,93847.38
2022-09-28T04:13:32.472Z,93844.41
2022-09-28T04:16:01.272Z,93845.75
2022-09-28T04:18:28.648Z,93843.81
2022-09-28T04:21:15.769Z,93851.19
2022-09-28T04:23:42.576Z,93849.25
2022-09-28T04:26:18.357Z,93854.81
2022-09-28T04:29:06.757Z,93848.91
2022-09-28T04:31:51.971Z,93853.72
2022-09-28T04:34:21.134Z,93845.53
2022-09-28T04:36:48.142Z,93855.81
2022-09-28T04:39:17.764Z,93851.63
2022-09-28T04:41:44.364Z,93857.69
2022-09-28T04:44:11.210Z,93868.94
2022-09-28T04:46:37.782Z,93861.66
2022-09-28T04:49:04.409Z,93859.75
2022-09-28T04:51:31.910Z,93868.47
2022-09-28T04:53:59.174Z,93864.75
2022-09-28T04:56:25.855Z,93863.84
2022-09-28T04:58:52.946Z,93863.06
2022-09-28T05:01:23.991Z,93872.56
2022-09-28T05:03:53.895Z,93872.03
2022-09-28T05:06:21.070Z,93869.19
2022-09-28T05:08:47.690Z,93878.94
2022-09-28T05:11:14.843Z,93864.38
2022-09-28T05:13:43.765Z,93870.06
2022-09-28T05:16:11.664Z,93867.00
2022-09-28T05:18:44.737Z,93869.28
2022-09-28T05:21:15.798Z,93872.66
2022-09-28T05:23:47.327Z,93878.34
2022-09-28T05:26:14.259Z,93876.53
2022-09-28T05:28:40.805Z,93879.28
2022-09-28T05:31:07.653Z,93881.06
2022-09-28T05:33:34.634Z,93872.53
2022-09-28T05:36:01.917Z,93877.16
2022-09-28T05:38:29.935Z,93877.16
2022-09-28T05:41:03.191Z,93873.69
2022-09-28T05:43:32.561Z,93872.66
2022-09-28T05:46:00.433Z,93882.66
2022-09-28T05:48:27.677Z,93874.03
2022-09-28T05:50:54.616Z,93877.31
2022-09-28T05:53:21.692Z,93876.50
2022-09-28T05:55:48.799Z,93881.19
2022-09-28T05:58:15.890Z,93876.31
2022-09-28T06:00:43.020Z,93875.84
2022-09-28T06:05:47.461Z,93874.47
2022-09-28T06:08:14.178Z,93874.69
2022-09-28T06:10:41.153Z,93886.53
2022-09-28T06:13:08.532Z,93882.75
2022-09-28T06:15:36.260Z,93895.59
2022-09-28T06:18:09.229Z,93891.28
2022-09-28T06:20:38.133Z,93895.16
2022-09-28T06:23:04.793Z,93901.75
2022-09-28T06:25:32.195Z,93891.03
2022-09-28T06:28:00.957Z,93907.47
2022-09-28T06:30:29.250Z,93905.53
2022-09-28T06:32:58.382Z,93898.44
2022-09-28T06:35:27.330Z,93910.50
2022-09-28T06:37:54.210Z,93907.72
2022-09-28T06:40:21.647Z,93906.56
2022-09-28T06:42:56.751Z,93917.47
2022-09-28T06:45:25.381Z,93917.00
2022-09-28T06:47:56.799Z,93919.97
2022-09-28T06:50:44.637Z,93917.00
2022-09-28T06:53:13.753Z,93919.38
2022-09-28T06:55:46.157Z,93923.59
2022-09-28T06:58:15.491Z,93924.50
2022-09-28T07:00:42.084Z,93942.94
2022-09-28T07:03:13.041Z,93941.75
2022-09-28T07:05:44.980Z,93947.47
2022-09-28T07:08:12.062Z,93958.69
2022-09-28T07:10:46.396Z,93950.59
2022-09-28T07:13:38.672Z,93957.13
2022-09-28T07:16:01.899Z,93950.88
2022-09-28T07:18:29.979Z,93966.97
2022-09-28T07:20:57.508Z,93963.28
2022-09-28T07:23:26.227Z,93957.47
2022-09-28T07:25:53.153Z,93967.44
2022-09-28T07:28:21.142Z,93976.63
2022-09-28T07:30:48.263Z,93976.63
2022-09-28T07:33:16.255Z,93973.69
2022-09-28T07:35:50.998Z,93978.03
2022-09-28T07:38:17.786Z,93973.16
2022-09-28T07:41:02.838Z,93972.56
2022-09-28T07:43:29.499Z,93975.03
2022-09-28T07:45:56.120Z,93984.00
2022-09-28T07:48:22.973Z,93983.16
2022-09-28T07:50:53.669Z,93986.25
2022-09-28T07:53:22.404Z,93982.81
2022-09-28T07:55:56.847Z,93996.50
2022-09-28T07:58:23.545Z,93988.41
2022-09-28T08:00:51.027Z,93998.47
2022-09-28T08:03:19.401Z,94002.00
2022-09-28T08:05:46.963Z,94001.47
2022-09-28T08:08:14.623Z,94004.81
2022-09-28T08:10:47.338Z,94002.00
2022-09-28T08:13:15.358Z,94007.63
2022-09-28T08:15:42.630Z,94007.09
2022-09-28T08:18:10.070Z,94007.19
2022-09-28T08:20:55.198Z,94009.13
2022-09-28T08:23:21.883Z,94013.34
2022-09-28T08:25:49.208Z,94008.16
2022-09-28T08:28:17.744Z,94010.28
2022-09-28T08:30:45.879Z,94009.31
2022-09-28T08:33:23.607Z,94019.81
2022-09-28T08:35:57.954Z,94019.63
2022-09-28T08:38:26.787Z,94024.03
2022-09-28T08:40:57.098Z,94028.28
2022-09-28T08:43:51.114Z,94031.81
2022-09-28T08:46:23.879Z,94040.63
2022-09-28T08:49:30.872Z,94037.41
2022-09-28T08:51:59.513Z,94046.78
2022-09-28T08:54:36.501Z,94041.97
2022-09-28T08:57:14.085Z,94047.19
2022-09-28T08:59:56.083Z,94054.91
2022-09-28T09:02:29.189Z,94046.31
2022-09-28T09:04:57.577Z,94055.16
2022-09-28T09:07:40.023Z,94051.47
2022-09-28T09:10:46.266Z,94050.09
2022-09-28T09:13:46.684Z,94049.19
2022-09-28T09:16:34.581Z,94054.25
2022-09-28T09:19:17.217Z,94058.38
2022-09-28T09:22:05.221Z,94061.06
2022-09-28T09:25:07.728Z,94060.19
2022-09-28T09:27:34.177Z,94062.41
2022-09-28T09:30:01.190Z,94066.84
2022-09-28T09:32:59.960Z,94060.53
2022-09-28T09:35:38.210Z,94063.09
2022-09-28T09:38:07.837Z,94068.41
2022-09-28T09:40:42.047Z,94072.44
2022-09-28T09:43:20.583Z,94069.47
2022-09-28T09:45:53.206Z,94065.00
2022-09-28T09:48:38.646Z,94065.00
2022-09-28T09:51:17.928Z,94064.72
2022-09-28T09:54:00.221Z,94066.38
2022-09-28T09:56:35.358Z,94063.16
2022-09-28T09:59:08.226Z,94071.06
2022-09-28T10:01:40.322Z,94068.16
2022-09-28T10:04:17.409Z,94062.75
2022-09-28T10:06:44.002Z,94062.59
2022-09-28T10:09:20.597Z,94061.84
2022-09-28T10:11:52.190Z,94064.88
2022-09-28T10:14:24.095Z,94059.44
2022-09-28T10:16:54.431Z,94058.13
2022-09-28T10:19:30.465Z,94067.97
2022-09-28T10:21:59.996Z,94069.66
2022-09-28T10:24:36.845Z,94067.72
2022-09-28T10:27:08.075Z,94067.78
2022-09-28T10:29:44.324Z,94077.78
2022-09-28T10:32:43.789Z,94068.94
2022-09-28T10:35:19.582Z,94067.59
2022-09-28T10:38:07.568Z,94069.94
2022-09-28T10:40:40.491Z,94067.91
2022-09-28T10:43:18.750Z,94069.38
2022-09-28T10:45:45.715Z,94064.88
2022-09-28T10:48:22.208Z,94070.72
2022-09-28T10:51:06.553Z,94067.00
2022-09-28T10:53:38.647Z,94085.34
2022-09-28T10:56:08.866Z,94082.25
2022-09-28T10:58:41.938Z,94088.03
2022-09-28T11:01:12.139Z,94089.13
2022-09-28T11:03:47.900Z,94084.66
2022-09-28T11:06:14.832Z,94081.66
2022-09-28T11:08:45.809Z,94085.63
2022-09-28T11:11:14.802Z,94084.31
2022-09-28T11:13:47.532Z,94083.28
2022-09-28T11:16:32.471Z,94094.69
2022-09-28T11:19:04.703Z,94082.31
2022-09-28T11:21:42.592Z,94085.84
2022-09-28T11:24:15.527Z,94090.81
2022-09-28T11:27:19.718Z,94089.75
2022-09-28T11:29:56.016Z,94089.34
2022-09-28T11:32:30.630Z,94096.63
2022-09-28T11:35:00.499Z,94091.44
2022-09-28T11:37:42.407Z,94093.69
2022-09-28T11:40:27.022Z,94088.75
2022-09-28T11:43:21.875Z,94088.63
2022-09-28T11:46:40.154Z,94085.41
2022-09-28T11:49:37.644Z,94092.19
2022-09-28T11:52:10.919Z,94085.69
2022-09-28T11:54:47.418Z,94090.16
2022-09-28T11:57:24.034Z,94085.56
2022-09-28T12:00:06.867Z,94091.19
2022-09-28T12:02:39.749Z,94087.19
2022-09-28T12:05:17.109Z,94081.50
2022-09-28T12:07:52.140Z,94084.25
2022-09-28T12:10:27.017Z,94078.06
2022-09-28T12:13:13.407Z,94088.25
2022-09-28T12:16:32.720Z,94080.09
2022-09-28T12:21:52.754Z,94086.13
2022-09-28T12:24:37.808Z,94078.41
2022-09-28T12:27:10.330Z,94086.13
2022-09-28T12:29:47.484Z,94093.91
2022-09-28T12:32:32.719Z,94079.69
2022-09-28T12:34:59.434Z,94078.88
2022-09-28T12:37:56.882Z,94077.84
2022-09-28T12:40:37.888Z,94089.50
2022-09-28T12:43:41.446Z,94083.69
2022-09-28T12:46:34.968Z,94079.88
2022-09-28T12:49:51.518Z,94075.59
2022-09-28T12:52:00.405Z,94068.09
2022-09-28T12:54:42.522Z,94059.28
2022-09-28T12:57:40.932Z,94067.81
2022-09-28T13:00:22.770Z,94070.19
2022-09-28T13:03:19.516Z,94063.63
2022-09-28T13:05:57.150Z,94070.19
2022-09-28T13:08:44.838Z,94063.75
2022-09-28T13:11:42.472Z,94071.13
2022-09-28T13:14:40.753Z,94050.97
2022-09-28T13:17:16.249Z,94062.09
2022-09-28T13:19:59.428Z,94057.16
2022-09-28T13:22:50.567Z,94053.66
2022-09-28T13:25:20.609Z,94054.94
2022-09-28T13:27:58.469Z,94047.47
2022-09-28T13:30:25.741Z,94050.81
2022-09-28T13:32:56.258Z,94058.19
2022-09-28T13:35:23.523Z,94057.03
2022-09-28T13:38:18.934Z,94051.88
2022-09-28T13:41:03.800Z,94049.78
2022-09-28T13:43:47.947Z,94055.38
2022-09-28T13:46:28.341Z,94055.09
2022-09-28T13:49:17.243Z,94050.53
2022-09-28T13:52:13.572Z,94058.47
2022-09-28T13:54:52.774Z,94068.22
2022-09-28T13:57:36.337Z,94062.59
2022-09-28T14:00:27.289Z,94066.09
2022-09-28T14:03:04.412Z,94062.91
2022-09-28T14:05:47.117Z,94075.22
2022-09-28T14:08:26.934Z,94069.00
2022-09-28T14:10:57.309Z,94076.19
2022-09-28T14:13:42.536Z,94072.00
2022-09-28T14:16:17.935Z,94067.72
2022-09-28T14:19:04.783Z,94062.44
2022-09-28T14:21:45.120Z,94068.97
2022-09-28T14:24:11.874Z,94070.72
2022-09-28T14:26:53.732Z,94066.53
2022-09-28T14:29:29.543Z,94069.00
2022-09-28T14:31:59.373Z,94062.97
2022-09-28T14:34:33.759Z,94068.47
2022-09-28T14:37:22.396Z,94064.91
2022-09-28T14:40:08.037Z,94073.94
2022-09-28T14:42:34.616Z,94064.78
2022-09-28T14:45:06.670Z,94075.44
2022-09-28T14:47:37.107Z,94070.66
2022-09-28T14:50:26.826Z,94085.66
2022-09-28T14:53:04.935Z,94086.41
2022-09-28T14:55:38.910Z,94089.31
2022-09-28T14:58:10.797Z,94082.53
2022-09-28T15:00:39.158Z,94080.50
2022-09-28T15:03:12.034Z,94071.63
2022-09-28T15:05:44.168Z,94066.44
2022-09-28T15:08:11.925Z,94082.25
2022-09-28T15:10:45.282Z,94082.34
2022-09-28T15:13:40.847Z,94080.78
2022-09-28T15:16:11.454Z,94074.44
2022-09-28T15:19:18.866Z,94073.19
2022-09-28T15:21:47.704Z,94075.56
2022-09-28T15:24:25.024Z,94070.69
2022-09-28T15:26:51.606Z,94075.63
2022-09-28T15:29:19.655Z,94069.22
2022-09-28T15:31:48.964Z,94083.16
2022-09-28T15:34:54.734Z,94084.81
2022-09-28T15:37:27.649Z,94078.63
2022-09-28T15:39:56.333Z,94081.59
2022-09-28T15:42:23.083Z,94075.75
2022-09-28T15:45:13.826Z,94079.22
2022-09-28T15:47:43.572Z,94082.91
2022-09-28T15:50:55.072Z,94080.22
2022-09-28T15:53:21.616Z,94076.00
2022-09-28T15:55:50.470Z,94075.53
2022-09-28T15:58:24.406Z,94074.59
2022-09-28T16:01:31.985Z,94084.56
2022-09-28T16:03:59.380Z,94083.44
2022-09-28T16:06:25.932Z,94080.84
2022-09-28T16:08:52.450Z,94081.13
2022-09-28T16:11:28.301Z,94084.38
2022-09-28T16:13:57.232Z,94075.22
2022-09-28T16:16:30.814Z,94077.84
2022-09-28T16:19:00.636Z,94082.16
2022-09-28T16:21:45.833Z,94081.97
2022-09-28T16:24:24.610Z,94080.06
2022-09-28T16:27:28.315Z,94076.13
2022-09-28T16:30:24.218Z,94080.88
2022-09-28T16:32:52.276Z,94081.41
2022-09-28T16:35:48.838Z,94083.53
2022-09-28T16:38:17.644Z,94090.63
2022-09-28T16:40:49.425Z,94088.22
2022-09-28T16:43:19.419Z,94093.81
2022-09-28T16:45:46.379Z,94103.19
2022-09-28T16:48:16.146Z,94096.75
2022-09-28T16:50:42.738Z,94101.72
2022-09-28T16:53:33.099Z,94099.16
2022-09-28T16:56:00.822Z,94102.69
2022-09-28T16:58:28.855Z,94099.59
2022-09-28T17:00:55.609Z,94099.59
2022-09-28T17:03:23.561Z,94105.41
2022-09-28T17:05:51.123Z,94119.03
2022-09-28T17:08:20.328Z,94120.09
2022-09-28T17:11:18.000Z,94142.91
2022-09-28T17:13:46.205Z,94146.16
2022-09-28T17:16:36.696Z,94146.16
2022-09-28T17:19:08.802Z,94145.28
2022-09-28T17:21:35.771Z,94144.22
2022-09-28T17:24:02.577Z,94147.69
2022-09-28T17:26:35.034Z,94134.53
2022-09-28T17:29:02.069Z,94138.66
2022-09-28T17:31:30.286Z,94139.56
2022-09-28T17:33:57.131Z,94141.22
2022-09-28T17:36:26.855Z,94149.34
2022-09-28T17:38:55.137Z,94154.38
2022-09-28T17:41:21.844Z,94157.78
2022-09-28T17:43:49.353Z,94149.19
2022-09-28T17:46:22.268Z,94149.69
2022-09-28T17:48:49.976Z,94149.41
2022-09-28T17:51:16.738Z,94155.31
2022-09-28T17:53:43.492Z,94146.66
2022-09-28T17:56:10.258Z,94156.44
2022-09-28T17:58:38.945Z,94153.28
2022-09-28T18:01:05.988Z,94152.38
2022-09-28T18:03:32.816Z,94156.16
2022-09-28T18:06:01.496Z,94150.59
2022-09-28T18:08:28.294Z,94160.03
2022-09-28T18:10:57.032Z,94153.19
2022-09-28T18:13:24.621Z,94153.78
2022-09-28T18:15:52.517Z,94153.31
2022-09-28T18:18:19.897Z,94160.81
2022-09-28T18:20:46.607Z,94161.53
2022-09-28T18:23:13.567Z,94160.63
2022-09-28T18:25:41.990Z,94155.84
2022-09-28T18:28:09.478Z,94159.72
2022-09-28T18:30:42.519Z,94158.84
2022-09-28T18:33:10.897Z,94163.16
2022-09-28T18:35:38.967Z,94164.28
2022-09-28T18:38:07.758Z,94164.41
2022-09-28T18:40:35.971Z,94162.91
2022-09-28T18:43:03.697Z,94164.16
2022-09-28T18:45:30.569Z,94170.16
2022-09-28T18:47:57.932Z,94167.97
2022-09-28T18:50:24.756Z,94169.91
2022-09-28T18:52:51.810Z,94173.00
2022-09-28T18:55:20.682Z,94165.06
2022-09-28T18:57:47.924Z,94171.44
2022-09-28T19:00:15.411Z,94172.72
2022-09-28T19:02:46.410Z,94178.66
2022-09-28T19:05:13.463Z,94186.63
2022-09-28T19:07:40.737Z,94179.81
2022-09-28T19:10:08.193Z,94178.22
2022-09-28T19:12:35.217Z,94186.06
2022-09-28T19:15:01.962Z,94178.13
2022-09-28T19:17:29.324Z,94183.47
2022-09-28T19:19:56.029Z,94179.16
2022-09-28T19:22:24.251Z,94183.81
2022-09-28T19:24:50.929Z,94189.16
2022-09-28T19:27:17.737Z,94190.19
2022-09-28T19:29:44.367Z,94198.63
2022-09-28T19:32:12.832Z,94185.09
2022-09-28T19:34:39.423Z,94185.31
2022-09-28T19:37:06.333Z,94185.66
2022-09-28T19:39:33.564Z,94181.34
2022-09-28T19:42:01.389Z,94191.91
2022-09-28T19:44:29.958Z,94192.50
2022-09-28T19:47:04.284Z,94198.41
2022-09-28T19:49:33.323Z,94191.25
2022-09-28T19:52:12.858Z,94191.00
2022-09-28T19:55:00.427Z,94195.06
2022-09-28T19:57:29.788Z,94198.94
2022-09-28T20:00:02.145Z,94209.50
2022-09-28T20:02:30.107Z,94209.50
2022-09-28T20:04:56.689Z,94211.78
2022-09-28T20:07:23.459Z,94211.63
2022-09-28T20:09:50.051Z,94197.78
2022-09-28T20:12:16.707Z,94201.06
2022-09-28T20:14:43.577Z,94212.53
2022-09-28T20:17:10.531Z,94208.44
2022-09-28T20:19:37.274Z,94202.97
2022-09-28T20:22:04.152Z,94202.19
2022-09-28T20:24:32.442Z,94195.94
2022-09-28T20:26:59.307Z,94201.72
2022-09-28T20:29:26.770Z,94204.78
2022-09-28T20:31:53.447Z,94207.28
2022-09-28T20:34:20.347Z,94205.91
2022-09-28T20:36:47.100Z,94204.53
2022-09-28T20:39:15.216Z,94209.75
2022-09-28T20:41:42.029Z,94211.22
2022-09-28T20:44:09.842Z,94212.69
2022-09-28T20:46:37.169Z,94206.44
2022-09-28T20:49:05.281Z,94210.16
2022-09-28T20:51:33.511Z,94206.94
2022-09-28T20:54:00.352Z,94206.16
2022-09-28T20:56:29.634Z,94204.09
2022-09-28T20:58:56.992Z,94207.84
2022-09-28T21:01:31.037Z,94197.94
2022-09-28T21:04:03.164Z,94200.41
2022-09-28T21:06:37.296Z,94204.47
2022-09-28T21:09:08.178Z,94200.38
2022-09-28T21:11:35.968Z,94204.09
2022-09-28T21:14:04.515Z,94206.09
2022-09-28T21:16:32.920Z,94213.66
2022-09-28T21:18:59.694Z,94213.66
2022-09-28T21:21:27.135Z,94211.28
2022-09-28T21:23:54.956Z,94210.94
2022-09-28T21:26:26.488Z,94210.59
2022-09-28T21:28:54.253Z,94209.94
2022-09-28T21:31:27.660Z,94209.47
2022-09-28T21:33:56.275Z,94211.41
2022-09-28T21:36:22.885Z,94216.06
2022-09-28T21:38:49.570Z,94209.16
2022-09-28T21:41:16.451Z,94212.00
2022-09-28T21:43:43.190Z,94214.72
2022-09-28T21:46:10.204Z,94215.19
2022-09-28T21:48:41.981Z,94216.13
2022-09-28T21:51:12.530Z,94206.47
2022-09-28T21:53:39.527Z,94207.41
2022-09-28T21:56:09.801Z,94201.97
2022-09-28T21:58:38.483Z,94208.66
2022-09-28T22:01:16.902Z,94211.38
2022-09-28T22:03:47.485Z,94204.13
2022-09-28T22:06:15.731Z,94211.63
2022-09-28T22:08:42.656Z,94205.97
2022-09-28T22:11:12.123Z,94204.06
2022-09-28T22:13:47.369Z,94211.09
2022-09-28T22:16:16.311Z,94215.09
2022-09-28T22:18:43.695Z,94220.19
2022-09-28T22:21:15.336Z,94213.03
2022-09-28T22:23:42.871Z,94223.47
2022-09-28T22:26:18.078Z,94224.81
2022-09-28T22:28:47.865Z,94224.22
2022-09-28T22:31:15.917Z,94224.41
2022-09-28T22:33:42.559Z,94223.50
2022-09-28T22:36:09.259Z,94219.25
2022-09-28T22:38:36.303Z,94221.63
2022-09-28T22:41:03.976Z,94232.91
2022-09-28T22:43:31.979Z,94229.41
2022-09-28T22:46:16.629Z,94225.22
2022-09-28T22:48:54.505Z,94231.47
2022-09-28T22:51:22.829Z,94229.06
2022-09-28T22:53:50.040Z,94226.09
2022-09-28T22:56:19.073Z,94220.75
2022-09-28T22:58:47.436Z,94222.81
2022-09-28T23:01:22.407Z,94224.53
2022-09-28T23:03:51.004Z,94218.56
2022-09-28T23:06:20.035Z,94218.00
2022-09-28T23:08:48.037Z,94219.88
2022-09-28T23:11:15.400Z,94218.34
2022-09-28T23:13:43.019Z,94208.03
2022-09-28T23:16:14.849Z,94212.69
2022-09-28T23:18:42.092Z,94205.84
2022-09-28T23:21:23.253Z,94206.09
2022-09-28T23:23:58.830Z,94209.97
2022-09-28T23:26:29.062Z,94199.19
2022-09-28T23:28:56.213Z,94206.59
2022-09-28T23:31:31.697Z,94203.88
2022-09-28T23:34:07.557Z,94206.47
2022-09-28T23:36:34.874Z,94205.50
2022-09-28T23:39:02.133Z,94209.81
2022-09-28T23:41:29.697Z,94203.16
2022-09-28T23:43:56.452Z,94198.13
2022-09-28T23:46:23.544Z,94202.28
2022-09-28T23:48:59.857Z,94193.41
2022-09-28T23:51:26.696Z,94197.72
2022-09-28T23:53:53.333Z,94191.03
2022-09-28T23:56:20.084Z,94192.28
2022-09-28T23:58:46.728Z,94191.03
